Liphook, United Kingdom
Current Conditions -  °F | °C
As of 6:50 AM on Saturday 25 Oct 2014 (Local Time) from EGVO Reporting Station
Overcast Overcast  
Wind Chill: 50°   Ceiling: 3800
Heat Index: 50°   Visibility: 6mi
Dew Point: 46°   Wind: 7mph
Humidity: 87%   Direction: 220°SW
Pressure: 30.03"   Gusts: NA
Location:  51.08°N, 0.8°W
Report Text: EGVO 250550Z 22006KT 9999 FEW030 OVC038 10/08 Q1017 BLU
Loading
Personal Weather Stations






























Interactive Weather Map New forecast layout! Learn more

10-Day Weather Forecast

Advertisements
Track Severe Weather on mobile